sensor_id;sensor_type;location;lat;lon;timestamp;temperature;humidity
22202;DHT22;11266;51.522;6.302;2023-02-08T12:56:39;7.30;99.30
22202;DHT22;11266;51.522;6.302;2023-02-08T12:57:28;7.30;99.90
22202;DHT22;11266;51.522;6.302;2023-02-08T12:58:30;7.40;99.90
22202;DHT22;11266;51.522;6.302;2023-02-08T12:59:27;7.50;99.90
22202;DHT22;11266;51.522;6.302;2023-02-08T13:00:18;7.50;99.90
22202;DHT22;11266;51.522;6.302;2023-02-08T13:01:24;7.50;99.90
22202;DHT22;11266;51.522;6.302;2023-02-08T13:02:32;7.50;99.10
22202;DHT22;11266;51.522;6.302;2023-02-08T13:03:35;7.60;99.90
22202;DHT22;11266;51.522;6.302;2023-02-08T13:04:31;7.60;99.90
22202;DHT22;11266;51.522;6.302;2023-02-08T13:05:20;7.60;99.90
22202;DHT22;11266;51.522;6.302;2023-02-08T13:06:11;7.60;98.80
22202;DHT22;11266;51.522;6.302;2023-02-08T13:07:02;7.60;98.40
22202;DHT22;11266;51.522;6.302;2023-02-08T13:07:54;7.60;99.90
22202;DHT22;11266;51.522;6.302;2023-02-08T13:08:51;7.70;99.90
22202;DHT22;11266;51.522;6.302;2023-02-08T13:09:43;7.70;99.90
22202;DHT22;11266;51.522;6.302;2023-02-08T13:10:35;7.70;99.90
22202;DHT22;11266;51.522;6.302;2023-02-08T13:11:46;7.80;99.10
22202;DHT22;11266;51.522;6.302;2023-02-08T13:12:46;7.80;98.80
22202;DHT22;11266;51.522;6.302;2023-02-08T13:13:36;7.80;99.90
22202;DHT22;11266;51.522;6.302;2023-02-08T13:16:00;7.90;99.90
22202;DHT22;11266;51.522;6.302;2023-02-08T13:16:52;7.80;99.90
22202;DHT22;11266;51.522;6.302;2023-02-08T13:17:51;7.80;97.20
22202;DHT22;11266;51.522;6.302;2023-02-08T13:19:04;7.90;99.90
22202;DHT22;11266;51.522;6.302;2023-02-08T13:20:50;7.90;98.50
22202;DHT22;11266;51.522;6.302;2023-02-08T13:21:37;7.90;99.90
22202;DHT22;11266;51.522;6.302;2023-02-08T13:22:31;7.90;96.50
22202;DHT22;11266;51.522;6.302;2023-02-08T13:24:45;8.00;99.90
22202;DHT22;11266;51.522;6.302;2023-02-08T13:25:35;8.10;99.90
22202;DHT22;11266;51.522;6.302;2023-02-08T13:26:26;8.20;99.90
22202;DHT22;11266;51.522;6.302;2023-02-08T13:27:17;8.10;99.20
22202;DHT22;11266;51.522;6.302;2023-02-08T13:28:04;8.20;99.90
22202;DHT22;11266;51.522;6.302;2023-02-08T13:28:53;8.20;99.90
22202;DHT22;11266;51.522;6.302;2023-02-08T13:29:39;8.20;99.90
22202;DHT22;11266;51.522;6.302;2023-02-08T13:30:25;8.20;99.90
22202;DHT22;11266;51.522;6.302;2023-02-08T13:31:22;8.30;99.90
22202;DHT22;11266;51.522;6.302;2023-02-08T13:32:15;8.30;99.90
22202;DHT22;11266;51.522;6.302;2023-02-08T13:33:17;8.30;99.90
22202;DHT22;11266;51.522;6.302;2023-02-08T13:34:16;8.20;99.90
22202;DHT22;11266;51.522;6.302;2023-02-08T13:35:58;8.30;99.90
22202;DHT22;11266;51.522;6.302;2023-02-08T13:36:59;8.30;98.50
22202;DHT22;11266;51.522;6.302;2023-02-08T13:37:51;8.30;98.50
22202;DHT22;11266;51.522;6.302;2023-02-08T13:38:38;8.40;99.90
22202;DHT22;11266;51.522;6.302;2023-02-08T13:39:40;8.50;99.90
22202;DHT22;11266;51.522;6.302;2023-02-08T13:40:30;8.50;99.90
22202;DHT22;11266;51.522;6.302;2023-02-08T13:41:19;8.50;98.60
22202;DHT22;11266;51.522;6.302;2023-02-08T13:42:15;8.50;97.70
22202;DHT22;11266;51.522;6.302;2023-02-08T13:43:52;8.50;99.90
22202;DHT22;11266;51.522;6.302;2023-02-08T13:44:41;8.50;99.90
22202;DHT22;11266;51.522;6.302;2023-02-08T13:45:39;8.50;99.90
22202;DHT22;11266;51.522;6.302;2023-02-08T13:46:28;8.50;97.60
22202;DHT22;11266;51.522;6.302;2023-02-08T13:47:43;8.50;99.90
22202;DHT22;11266;51.522;6.302;2023-02-08T13:48:53;8.50;99.90
22202;DHT22;11266;51.522;6.302;2023-02-08T13:50:00;8.50;99.90
22202;DHT22;11266;51.522;6.302;2023-02-08T13:54:37;8.60;99.90
22202;DHT22;11266;51.522;6.302;2023-02-08T13:57:51;8.60;98.60
22202;DHT22;11266;51.522;6.302;2023-02-08T13:59:37;8.50;99.20
22202;DHT22;11266;51.522;6.302;2023-02-08T14:02:16;8.60;99.90
22202;DHT22;11266;51.522;6.302;2023-02-08T14:04:26;8.50;98.90
22202;DHT22;11266;51.522;6.302;2023-02-08T14:06:14;8.40;97.20
22202;DHT22;11266;51.522;6.302;2023-02-08T14:08:01;8.40;99.40
22202;DHT22;11266;51.522;6.302;2023-02-08T14:10:25;8.30;97.60
22202;DHT22;11266;51.522;6.302;2023-02-08T14:12:40;8.50;99.90
22202;DHT22;11266;51.522;6.302;2023-02-08T14:13:55;8.40;99.90
22202;DHT22;11266;51.522;6.302;2023-02-08T14:15:25;8.50;99.90
22202;DHT22;11266;51.522;6.302;2023-02-08T14:17:27;8.40;99.90
22202;DHT22;11266;51.522;6.302;2023-02-08T14:18:24;8.30;99.90
22202;DHT22;11266;51.522;6.302;2023-02-08T14:20:05;8.40;99.90
22202;DHT22;11266;51.522;6.302;2023-02-08T14:21:02;8.40;99.90
22202;DHT22;11266;51.522;6.302;2023-02-08T14:22:59;8.40;99.90
22202;DHT22;11266;51.522;6.302;2023-02-08T14:23:45;8.40;97.90
22202;DHT22;11266;51.522;6.302;2023-02-08T14:25:44;8.30;99.90
22202;DHT22;11266;51.522;6.302;2023-02-08T14:26:31;8.40;99.90
22202;DHT22;11266;51.522;6.302;2023-02-08T14:27:24;8.30;99.90
22202;DHT22;11266;51.522;6.302;2023-02-08T14:29:26;8.30;99.90
22202;DHT22;11266;51.522;6.302;2023-02-08T14:31:04;8.30;98.90
22202;DHT22;11266;51.522;6.302;2023-02-08T14:31:51;8.30;99.90
22202;DHT22;11266;51.522;6.302;2023-02-08T14:32:39;8.30;99.90
22202;DHT22;11266;51.522;6.302;2023-02-08T14:33:36;8.30;99.90
22202;DHT22;11266;51.522;6.302;2023-02-08T14:34:32;8.30;99.90
22202;DHT22;11266;51.522;6.302;2023-02-08T14:35:22;8.30;99.90
22202;DHT22;11266;51.522;6.302;2023-02-08T14:39:23;8.20;99.90
22202;DHT22;11266;51.522;6.302;2023-02-08T14:41:07;8.20;99.90
22202;DHT22;11266;51.522;6.302;2023-02-08T14:42:00;8.20;98.30
22202;DHT22;11266;51.522;6.302;2023-02-08T14:43:01;8.20;99.90
22202;DHT22;11266;51.522;6.302;2023-02-08T14:43:47;8.20;99.90
22202;DHT22;11266;51.522;6.302;2023-02-08T14:45:27;8.20;99.90
22202;DHT22;11266;51.522;6.302;2023-02-08T14:49:21;8.20;99.90
22202;DHT22;11266;51.522;6.302;2023-02-08T14:52:04;8.10;99.90
22202;DHT22;11266;51.522;6.302;2023-02-08T14:53:33;8.10;99.90
22202;DHT22;11266;51.522;6.302;2023-02-08T14:55:06;7.90;99.90
22202;DHT22;11266;51.522;6.302;2023-02-08T14:58:13;8.00;99.90
22202;DHT22;11266;51.522;6.302;2023-02-08T14:59:05;8.00;99.90
22202;DHT22;11266;51.522;6.302;2023-02-08T14:59:51;7.90;99.90
22202;DHT22;11266;51.522;6.302;2023-02-08T15:00:38;7.90;99.90
22202;DHT22;11266;51.522;6.302;2023-02-08T15:02:20;7.80;99.90
22202;DHT22;11266;51.522;6.302;2023-02-08T15:03:13;7.90;99.90
22202;DHT22;11266;51.522;6.302;2023-02-08T15:03:59;7.90;99.90
22202;DHT22;11266;51.522;6.302;2023-02-08T15:04:46;7.90;99.90
22202;DHT22;11266;51.522;6.302;2023-02-08T15:05:42;7.80;99.50
22202;DHT22;11266;51.522;6.302;2023-02-08T15:06:42;7.80;99.90
22202;DHT22;11266;51.522;6.302;2023-02-08T15:07:53;7.70;99.90
22202;DHT22;11266;51.522;6.302;2023-02-08T15:08:40;7.80;99.90
22202;DHT22;11266;51.522;6.302;2023-02-08T15:09:28;7.80;99.90
22202;DHT22;11266;51.522;6.302;2023-02-08T15:10:21;7.80;99.90
22202;DHT22;11266;51.522;6.302;2023-02-08T15:11:23;7.80;99.90
22202;DHT22;11266;51.522;6.302;2023-02-08T15:12:31;7.80;99.90
22202;DHT22;11266;51.522;6.302;2023-02-08T15:13:22;7.70;99.90
22202;DHT22;11266;51.522;6.302;2023-02-08T15:14:17;7.60;99.90
22202;DHT22;11266;51.522;6.302;2023-02-08T15:15:05;7.60;99.90
22202;DHT22;11266;51.522;6.302;2023-02-08T15:15:55;7.60;99.90
22202;DHT22;11266;51.522;6.302;2023-02-08T15:16:42;7.60;99.90
22202;DHT22;11266;51.522;6.302;2023-02-08T15:17:35;7.50;99.90
22202;DHT22;11266;51.522;6.302;2023-02-08T15:18:32;7.50;99.90
22202;DHT22;11266;51.522;6.302;2023-02-08T15:20:23;7.50;99.80
22202;DHT22;11266;51.522;6.302;2023-02-08T15:21:17;7.40;99.90
22202;DHT22;11266;51.522;6.302;2023-02-08T15:22:16;7.40;99.90
22202;DHT22;11266;51.522;6.302;2023-02-08T15:24:23;7.40;99.90
22202;DHT22;11266;51.522;6.302;2023-02-08T15:26:20;7.40;99.90
22202;DHT22;11266;51.522;6.302;2023-02-08T15:27:23;7.40;99.90
22202;DHT22;11266;51.522;6.302;2023-02-08T15:28:17;7.30;99.90
22202;DHT22;11266;51.522;6.302;2023-02-08T15:29:38;7.30;99.90
22202;DHT22;11266;51.522;6.302;2023-02-08T15:30:30;7.20;99.90
22202;DHT22;11266;51.522;6.302;2023-02-08T15:31:29;7.20;99.90
22202;DHT22;11266;51.522;6.302;2023-02-08T15:32:18;7.20;99.90
22202;DHT22;11266;51.522;6.302;2023-02-08T15:33:15;7.20;99.90
22202;DHT22;11266;51.522;6.302;2023-02-08T15:34:02;7.20;99.90
22202;DHT22;11266;51.522;6.302;2023-02-08T15:34:59;7.20;99.90
22202;DHT22;11266;51.522;6.302;2023-02-08T15:35:45;7.10;99.90
22202;DHT22;11266;51.522;6.302;2023-02-08T15:36:38;7.10;99.90
22202;DHT22;11266;51.522;6.302;2023-02-08T15:37:31;7.10;99.90
22202;DHT22;11266;51.522;6.302;2023-02-08T15:38:23;7.10;99.90
22202;DHT22;11266;51.522;6.302;2023-02-08T15:39:53;7.10;99.90
22202;DHT22;11266;51.522;6.302;2023-02-08T15:40:29;7.00;99.90
22202;DHT22;11266;51.522;6.302;2023-02-08T15:41:25;7.00;99.90
22202;DHT22;11266;51.522;6.302;2023-02-08T15:42:23;7.00;99.90
22202;DHT22;11266;51.522;6.302;2023-02-08T15:43:12;7.00;99.90
22202;DHT22;11266;51.522;6.302;2023-02-08T15:44:24;7.00;99.90
22202;DHT22;11266;51.522;6.302;2023-02-08T15:45:38;6.90;99.90
22202;DHT22;11266;51.522;6.302;2023-02-08T15:46:25;6.90;99.90
22202;DHT22;11266;51.522;6.302;2023-02-08T15:47:18;6.80;99.90
22202;DHT22;11266;51.522;6.302;2023-02-08T15:48:06;6.80;99.90
22202;DHT22;11266;51.522;6.302;2023-02-08T15:48:53;6.80;99.90
22202;DHT22;11266;51.522;6.302;2023-02-08T15:49:46;6.80;99.90
22202;DHT22;11266;51.522;6.302;2023-02-08T15:50:35;6.70;99.90
22202;DHT22;11266;51.522;6.302;2023-02-08T15:51:21;6.70;99.90
22202;DHT22;11266;51.522;6.302;2023-02-08T15:52:14;6.70;99.90
22202;DHT22;11266;51.522;6.302;2023-02-08T15:53:05;6.60;99.90
22202;DHT22;11266;51.522;6.302;2023-02-08T15:53:53;6.70;99.90
22202;DHT22;11266;51.522;6.302;2023-02-08T15:54:39;6.60;99.90
22202;DHT22;11266;51.522;6.302;2023-02-08T15:55:27;6.60;99.90
22202;DHT22;11266;51.522;6.302;2023-02-08T15:56:20;6.60;99.90
22202;DHT22;11266;51.522;6.302;2023-02-08T15:58:34;6.50;99.90
22202;DHT22;11266;51.522;6.302;2023-02-08T15:59:28;6.50;99.90
22202;DHT22;11266;51.522;6.302;2023-02-08T16:00:20;6.50;99.90
22202;DHT22;11266;51.522;6.302;2023-02-08T16:01:08;6.40;99.90
22202;DHT22;11266;51.522;6.302;2023-02-08T16:02:10;6.40;99.90
22202;DHT22;11266;51.522;6.302;2023-02-08T16:03:03;6.40;99.90
22202;DHT22;11266;51.522;6.302;2023-02-08T16:03:56;6.50;99.90
22202;DHT22;11266;51.522;6.302;2023-02-08T16:04:44;6.40;99.90
22202;DHT22;11266;51.522;6.302;2023-02-08T16:05:31;6.40;99.90
22202;DHT22;11266;51.522;6.302;2023-02-08T16:06:23;6.30;99.90
22202;DHT22;11266;51.522;6.302;2023-02-08T16:07:28;6.30;99.90
22202;DHT22;11266;51.522;6.302;2023-02-08T16:08:21;6.30;99.90
22202;DHT22;11266;51.522;6.302;2023-02-08T16:09:16;6.20;99.90
22202;DHT22;11266;51.522;6.302;2023-02-08T16:10:07;6.30;99.90
22202;DHT22;11266;51.522;6.302;2023-02-08T16:10:56;6.30;99.90
22202;DHT22;11266;51.522;6.302;2023-02-08T16:11:46;6.20;99.90
22202;DHT22;11266;51.522;6.302;2023-02-08T16:12:36;6.20;99.90
22202;DHT22;11266;51.522;6.302;2023-02-08T16:13:44;6.20;99.90
22202;DHT22;11266;51.522;6.302;2023-02-08T16:14:30;6.20;99.90
22202;DHT22;11266;51.522;6.302;2023-02-08T16:15:39;6.00;99.90
22202;DHT22;11266;51.522;6.302;2023-02-08T16:16:44;6.00;99.90
22202;DHT22;11266;51.522;6.302;2023-02-08T16:17:45;5.90;99.90
22202;DHT22;11266;51.522;6.302;2023-02-08T16:20:27;6.00;99.90
22202;DHT22;11266;51.522;6.302;2023-02-08T16:22:18;5.90;99.90
22202;DHT22;11266;51.522;6.302;2023-02-08T16:23:29;5.90;99.90
22202;DHT22;11266;51.522;6.302;2023-02-08T16:25:42;5.80;99.90
22202;DHT22;11266;51.522;6.302;2023-02-08T16:26:39;5.80;99.90
22202;DHT22;11266;51.522;6.302;2023-02-08T16:27:30;5.70;99.90
22202;DHT22;11266;51.522;6.302;2023-02-08T16:28:34;5.70;99.90
22202;DHT22;11266;51.522;6.302;2023-02-08T16:29:29;5.60;99.90
22202;DHT22;11266;51.522;6.302;2023-02-08T16:30:24;5.60;99.90
22202;DHT22;11266;51.522;6.302;2023-02-08T16:31:10;5.60;99.90
22202;DHT22;11266;51.522;6.302;2023-02-08T16:32:23;5.60;99.90
22202;DHT22;11266;51.522;6.302;2023-02-08T16:33:12;5.60;99.90
22202;DHT22;11266;51.522;6.302;2023-02-08T16:34:14;5.50;99.90
22202;DHT22;11266;51.522;6.302;2023-02-08T16:35:10;5.50;99.90
22202;DHT22;11266;51.522;6.302;2023-02-08T16:35:57;5.40;99.90
22202;DHT22;11266;51.522;6.302;2023-02-08T16:36:48;5.40;99.90
22202;DHT22;11266;51.522;6.302;2023-02-08T16:37:34;5.40;99.90
22202;DHT22;11266;51.522;6.302;2023-02-08T16:38:22;5.30;99.90
22202;DHT22;11266;51.522;6.302;2023-02-08T16:40:51;5.20;99.90
22202;DHT22;11266;51.522;6.302;2023-02-08T16:42:43;5.20;99.90
22202;DHT22;11266;51.522;6.302;2023-02-08T16:43:31;5.10;99.90
22202;DHT22;11266;51.522;6.302;2023-02-08T16:44:26;5.10;99.90
22202;DHT22;11266;51.522;6.302;2023-02-08T16:45:15;5.00;99.90
22202;DHT22;11266;51.522;6.302;2023-02-08T16:46:56;5.00;99.90
22202;DHT22;11266;51.522;6.302;2023-02-08T16:47:48;4.90;99.90
22202;DHT22;11266;51.522;6.302;2023-02-08T16:48:36;4.90;99.90
22202;DHT22;11266;51.522;6.302;2023-02-08T16:49:23;4.90;99.90
22202;DHT22;11266;51.522;6.302;2023-02-08T16:50:17;4.80;99.90
22202;DHT22;11266;51.522;6.302;2023-02-08T16:51:06;4.80;99.90
22202;DHT22;11266;51.522;6.302;2023-02-08T16:51:58;4.80;99.90
22202;DHT22;11266;51.522;6.302;2023-02-08T16:52:51;4.80;99.90
22202;DHT22;11266;51.522;6.302;2023-02-08T16:53:37;4.70;99.90
22202;DHT22;11266;51.522;6.302;2023-02-08T16:54:23;4.70;99.90
22202;DHT22;11266;51.522;6.302;2023-02-08T16:55:21;4.60;99.90
22202;DHT22;11266;51.522;6.302;2023-02-08T16:56:08;4.60;99.90
22202;DHT22;11266;51.522;6.302;2023-02-08T16:56:56;4.60;99.90
22202;DHT22;11266;51.522;6.302;2023-02-08T16:57:52;4.50;99.90
22202;DHT22;11266;51.522;6.302;2023-02-08T16:58:38;4.50;99.90
22202;DHT22;11266;51.522;6.302;2023-02-08T16:59:25;4.50;99.90
22202;DHT22;11266;51.522;6.302;2023-02-08T17:00:17;4.40;99.90
22202;DHT22;11266;51.522;6.302;2023-02-08T17:01:03;4.40;99.90
22202;DHT22;11266;51.522;6.302;2023-02-08T17:01:49;4.40;99.90
22202;DHT22;11266;51.522;6.302;2023-02-08T17:02:37;4.30;99.90
22202;DHT22;11266;51.522;6.302;2023-02-08T17:03:23;4.30;99.90
22202;DHT22;11266;51.522;6.302;2023-02-08T17:04:08;4.30;99.90
22202;DHT22;11266;51.522;6.302;2023-02-08T17:04:54;4.20;99.90
22202;DHT22;11266;51.522;6.302;2023-02-08T17:05:40;4.20;99.90
22202;DHT22;11266;51.522;6.302;2023-02-08T17:06:35;4.20;99.90
22202;DHT22;11266;51.522;6.302;2023-02-08T17:07:21;4.10;99.90
22202;DHT22;11266;51.522;6.302;2023-02-08T17:08:15;4.10;99.90
22202;DHT22;11266;51.522;6.302;2023-02-08T17:09:02;4.00;99.90
22202;DHT22;11266;51.522;6.302;2023-02-08T17:09:48;4.00;99.90
22202;DHT22;11266;51.522;6.302;2023-02-08T17:10:35;4.00;99.90
22202;DHT22;11266;51.522;6.302;2023-02-08T17:11:21;3.90;99.90
22202;DHT22;11266;51.522;6.302;2023-02-08T17:12:10;3.80;99.90
22202;DHT22;11266;51.522;6.302;2023-02-08T17:12:57;3.80;99.90
22202;DHT22;11266;51.522;6.302;2023-02-08T17:13:44;3.70;99.90
22202;DHT22;11266;51.522;6.302;2023-02-08T17:14:29;3.70;99.90
22202;DHT22;11266;51.522;6.302;2023-02-08T17:15:15;3.70;99.90
22202;DHT22;11266;51.522;6.302;2023-02-08T17:16:01;3.70;99.90
22202;DHT22;11266;51.522;6.302;2023-02-08T17:16:49;3.70;99.90
22202;DHT22;11266;51.522;6.302;2023-02-08T17:17:37;3.70;99.90
22202;DHT22;11266;51.522;6.302;2023-02-08T17:18:23;3.70;99.90
22202;DHT22;11266;51.522;6.302;2023-02-08T17:19:15;3.60;99.90
22202;DHT22;11266;51.522;6.302;2023-02-08T17:20:01;3.60;99.90
22202;DHT22;11266;51.522;6.302;2023-02-08T17:20:47;3.60;99.90
22202;DHT22;11266;51.522;6.302;2023-02-08T17:21:33;3.50;99.90
22202;DHT22;11266;51.522;6.302;2023-02-08T17:22:18;3.50;99.90
22202;DHT22;11266;51.522;6.302;2023-02-08T17:23:05;3.50;99.90
22202;DHT22;11266;51.522;6.302;2023-02-08T17:23:53;3.50;99.90
22202;DHT22;11266;51.522;6.302;2023-02-08T17:24:38;3.40;99.90
22202;DHT22;11266;51.522;6.302;2023-02-08T17:25:24;3.40;99.90
22202;DHT22;11266;51.522;6.302;2023-02-08T17:26:24;3.40;99.90
22202;DHT22;11266;51.522;6.302;2023-02-08T17:27:13;3.40;99.90
22202;DHT22;11266;51.522;6.302;2023-02-08T17:28:08;3.30;99.90
22202;DHT22;11266;51.522;6.302;2023-02-08T17:28:57;3.30;99.90
22202;DHT22;11266;51.522;6.302;2023-02-08T17:29:43;3.30;99.90
22202;DHT22;11266;51.522;6.302;2023-02-08T17:30:38;3.30;99.90
22202;DHT22;11266;51.522;6.302;2023-02-08T17:31:25;3.20;99.90
22202;DHT22;11266;51.522;6.302;2023-02-08T17:32:12;3.20;99.90
22202;DHT22;11266;51.522;6.302;2023-02-08T17:32:58;3.10;99.90
22202;DHT22;11266;51.522;6.302;2023-02-08T17:33:44;3.10;99.90
22202;DHT22;11266;51.522;6.302;2023-02-08T17:34:30;3.10;99.90
22202;DHT22;11266;51.522;6.302;2023-02-08T17:35:16;3.10;99.90
22202;DHT22;11266;51.522;6.302;2023-02-08T17:36:02;3.10;99.90
22202;DHT22;11266;51.522;6.302;2023-02-08T17:36:48;3.00;99.90
22202;DHT22;11266;51.522;6.302;2023-02-08T17:37:33;3.00;99.90
22202;DHT22;11266;51.522;6.302;2023-02-08T17:38:20;3.00;99.90
22202;DHT22;11266;51.522;6.302;2023-02-08T17:39:05;3.00;99.90
22202;DHT22;11266;51.522;6.302;2023-02-08T17:39:51;2.90;99.90
22202;DHT22;11266;51.522;6.302;2023-02-08T17:40:37;2.90;99.90
22202;DHT22;11266;51.522;6.302;2023-02-08T17:41:23;2.90;99.90
22202;DHT22;11266;51.522;6.302;2023-02-08T17:42:08;2.90;99.90
22202;DHT22;11266;51.522;6.302;2023-02-08T17:42:56;2.80;99.90
22202;DHT22;11266;51.522;6.302;2023-02-08T17:43:42;2.80;99.90
22202;DHT22;11266;51.522;6.302;2023-02-08T17:44:30;2.80;99.90
22202;DHT22;11266;51.522;6.302;2023-02-08T17:45:16;2.80;99.90
22202;DHT22;11266;51.522;6.302;2023-02-08T17:46:08;2.80;99.90
22202;DHT22;11266;51.522;6.302;2023-02-08T17:46:54;2.70;99.90
22202;DHT22;11266;51.522;6.302;2023-02-08T17:47:40;2.70;99.90
22202;DHT22;11266;51.522;6.302;2023-02-08T17:48:28;2.60;99.90
22202;DHT22;11266;51.522;6.302;2023-02-08T17:49:14;2.60;99.90
22202;DHT22;11266;51.522;6.302;2023-02-08T17:50:00;2.60;99.90
22202;DHT22;11266;51.522;6.302;2023-02-08T17:50:46;2.60;99.90
22202;DHT22;11266;51.522;6.302;2023-02-08T17:51:35;2.50;99.90
22202;DHT22;11266;51.522;6.302;2023-02-08T17:52:20;2.50;99.90
22202;DHT22;11266;51.522;6.302;2023-02-08T17:53:06;2.50;99.90
22202;DHT22;11266;51.522;6.302;2023-02-08T17:53:52;2.40;99.90
22202;DHT22;11266;51.522;6.302;2023-02-08T17:54:38;2.50;99.90
22202;DHT22;11266;51.522;6.302;2023-02-08T17:55:23;2.40;99.90
22202;DHT22;11266;51.522;6.302;2023-02-08T17:56:10;2.40;99.90
22202;DHT22;11266;51.522;6.302;2023-02-08T17:56:57;2.40;99.90
22202;DHT22;11266;51.522;6.302;2023-02-08T17:57:44;2.30;99.90
22202;DHT22;11266;51.522;6.302;2023-02-08T17:58:30;2.30;99.90
22202;DHT22;11266;51.522;6.302;2023-02-08T17:59:17;2.30;99.90
22202;DHT22;11266;51.522;6.302;2023-02-08T18:00:05;2.30;99.90
